sensor_id;sensor_type;location;lat;lon;timestamp;temperature;humidity
28244;DHT22;15510;52.512;13.300;2023-07-02T00:01:23;18.10;99.90
28244;DHT22;15510;52.512;13.300;2023-07-02T00:03:49;18.00;99.90
28244;DHT22;15510;52.512;13.300;2023-07-02T00:06:15;17.90;99.90
28244;DHT22;15510;52.512;13.300;2023-07-02T00:08:43;17.90;99.90
28244;DHT22;15510;52.512;13.300;2023-07-02T00:11:09;18.00;99.90
28244;DHT22;15510;52.512;13.300;2023-07-02T00:13:38;17.90;99.90
28244;DHT22;15510;52.512;13.300;2023-07-02T00:16:04;17.90;99.90
28244;DHT22;15510;52.512;13.300;2023-07-02T00:18:30;18.00;99.90
28244;DHT22;15510;52.512;13.300;2023-07-02T00:21:02;17.90;99.90
28244;DHT22;15510;52.512;13.300;2023-07-02T00:23:30;17.90;99.90
28244;DHT22;15510;52.512;13.300;2023-07-02T00:25:57;17.80;99.90
28244;DHT22;15510;52.512;13.300;2023-07-02T00:28:23;17.80;99.90
28244;DHT22;15510;52.512;13.300;2023-07-02T00:30:50;17.80;99.90
28244;DHT22;15510;52.512;13.300;2023-07-02T00:33:15;17.90;99.90
28244;DHT22;15510;52.512;13.300;2023-07-02T00:35:41;17.90;99.90
28244;DHT22;15510;52.512;13.300;2023-07-02T00:38:07;17.90;99.90
28244;DHT22;15510;52.512;13.300;2023-07-02T00:40:33;17.90;99.90
28244;DHT22;15510;52.512;13.300;2023-07-02T00:42:59;17.90;99.90
28244;DHT22;15510;52.512;13.300;2023-07-02T00:45:24;17.90;99.90
28244;DHT22;15510;52.512;13.300;2023-07-02T00:47:54;17.90;99.90
28244;DHT22;15510;52.512;13.300;2023-07-02T00:50:21;17.90;99.90
28244;DHT22;15510;52.512;13.300;2023-07-02T00:52:48;18.00;99.90
28244;DHT22;15510;52.512;13.300;2023-07-02T00:55:14;18.00;99.90
28244;DHT22;15510;52.512;13.300;2023-07-02T00:57:41;18.00;99.90
28244;DHT22;15510;52.512;13.300;2023-07-02T01:00:12;18.10;99.90
28244;DHT22;15510;52.512;13.300;2023-07-02T01:02:38;18.10;99.90
28244;DHT22;15510;52.512;13.300;2023-07-02T01:05:15;18.10;99.90
28244;DHT22;15510;52.512;13.300;2023-07-02T01:07:41;18.10;99.90
28244;DHT22;15510;52.512;13.300;2023-07-02T01:10:07;18.20;99.90
28244;DHT22;15510;52.512;13.300;2023-07-02T01:12:35;18.10;99.90
28244;DHT22;15510;52.512;13.300;2023-07-02T01:15:03;18.20;99.90
28244;DHT22;15510;52.512;13.300;2023-07-02T01:17:32;18.10;99.90
28244;DHT22;15510;52.512;13.300;2023-07-02T01:20:07;18.10;99.90
28244;DHT22;15510;52.512;13.300;2023-07-02T01:22:33;18.10;99.90
28244;DHT22;15510;52.512;13.300;2023-07-02T01:25:01;18.00;99.90
28244;DHT22;15510;52.512;13.300;2023-07-02T01:27:29;18.20;99.90
28244;DHT22;15510;52.512;13.300;2023-07-02T01:29:55;18.20;99.90
28244;DHT22;15510;52.512;13.300;2023-07-02T01:32:22;18.10;99.90
28244;DHT22;15510;52.512;13.300;2023-07-02T01:34:50;18.10;99.90
28244;DHT22;15510;52.512;13.300;2023-07-02T01:37:18;18.10;99.90
28244;DHT22;15510;52.512;13.300;2023-07-02T01:39:45;18.10;99.90
28244;DHT22;15510;52.512;13.300;2023-07-02T01:42:12;18.10;99.90
28244;DHT22;15510;52.512;13.300;2023-07-02T01:44:44;18.10;99.90
28244;DHT22;15510;52.512;13.300;2023-07-02T01:47:10;18.20;99.90
28244;DHT22;15510;52.512;13.300;2023-07-02T01:49:37;18.20;99.90
28244;DHT22;15510;52.512;13.300;2023-07-02T01:52:04;18.20;99.90
28244;DHT22;15510;52.512;13.300;2023-07-02T01:54:31;18.20;99.90
28244;DHT22;15510;52.512;13.300;2023-07-02T01:56:59;18.20;99.90
28244;DHT22;15510;52.512;13.300;2023-07-02T01:59:26;18.20;99.90
28244;DHT22;15510;52.512;13.300;2023-07-02T02:01:52;18.20;99.90
28244;DHT22;15510;52.512;13.300;2023-07-02T02:04:18;18.10;99.90
28244;DHT22;15510;52.512;13.300;2023-07-02T02:06:43;18.10;99.90
28244;DHT22;15510;52.512;13.300;2023-07-02T02:09:11;18.10;99.90
28244;DHT22;15510;52.512;13.300;2023-07-02T02:11:44;18.00;99.90
28244;DHT22;15510;52.512;13.300;2023-07-02T02:14:10;18.00;99.90
28244;DHT22;15510;52.512;13.300;2023-07-02T02:16:35;18.00;99.90
28244;DHT22;15510;52.512;13.300;2023-07-02T02:19:02;18.00;99.90
28244;DHT22;15510;52.512;13.300;2023-07-02T02:21:28;17.90;99.90
28244;DHT22;15510;52.512;13.300;2023-07-02T02:23:54;17.90;99.90
28244;DHT22;15510;52.512;13.300;2023-07-02T02:26:21;17.90;99.90
28244;DHT22;15510;52.512;13.300;2023-07-02T02:28:48;17.80;99.90
28244;DHT22;15510;52.512;13.300;2023-07-02T02:31:15;17.80;99.90
28244;DHT22;15510;52.512;13.300;2023-07-02T02:33:41;17.80;99.90
28244;DHT22;15510;52.512;13.300;2023-07-02T02:36:06;17.70;99.90
28244;DHT22;15510;52.512;13.300;2023-07-02T02:38:32;17.80;99.90
28244;DHT22;15510;52.512;13.300;2023-07-02T02:41:00;17.70;99.90
28244;DHT22;15510;52.512;13.300;2023-07-02T02:43:30;17.80;99.90
28244;DHT22;15510;52.512;13.300;2023-07-02T02:45:55;17.80;99.90
28244;DHT22;15510;52.512;13.300;2023-07-02T02:48:21;17.80;99.90
28244;DHT22;15510;52.512;13.300;2023-07-02T02:50:50;17.80;99.90
28244;DHT22;15510;52.512;13.300;2023-07-02T02:53:16;17.80;99.90
28244;DHT22;15510;52.512;13.300;2023-07-02T02:55:41;17.80;99.90
28244;DHT22;15510;52.512;13.300;2023-07-02T02:58:07;17.80;99.90
28244;DHT22;15510;52.512;13.300;2023-07-02T03:00:33;17.80;99.90
28244;DHT22;15510;52.512;13.300;2023-07-02T03:02:59;17.80;99.90
28244;DHT22;15510;52.512;13.300;2023-07-02T03:05:25;17.80;99.90
28244;DHT22;15510;52.512;13.300;2023-07-02T03:07:52;17.70;99.90
28244;DHT22;15510;52.512;13.300;2023-07-02T03:10:18;17.70;99.90
28244;DHT22;15510;52.512;13.300;2023-07-02T03:12:43;17.70;99.90
28244;DHT22;15510;52.512;13.300;2023-07-02T03:15:09;17.60;99.90
28244;DHT22;15510;52.512;13.300;2023-07-02T03:17:36;17.50;99.90
28244;DHT22;15510;52.512;13.300;2023-07-02T03:22:36;17.50;99.90
28244;DHT22;15510;52.512;13.300;2023-07-02T03:25:02;17.50;99.90
28244;DHT22;15510;52.512;13.300;2023-07-02T03:27:28;17.50;99.90
28244;DHT22;15510;52.512;13.300;2023-07-02T03:29:54;17.50;99.90
28244;DHT22;15510;52.512;13.300;2023-07-02T03:32:20;17.50;99.90
28244;DHT22;15510;52.512;13.300;2023-07-02T03:34:45;17.50;99.90
28244;DHT22;15510;52.512;13.300;2023-07-02T03:37:11;17.50;99.90
28244;DHT22;15510;52.512;13.300;2023-07-02T03:39:37;17.50;99.90
28244;DHT22;15510;52.512;13.300;2023-07-02T03:42:04;17.50;99.90
28244;DHT22;15510;52.512;13.300;2023-07-02T03:44:33;17.50;99.90
28244;DHT22;15510;52.512;13.300;2023-07-02T03:46:59;17.50;99.90
28244;DHT22;15510;52.512;13.300;2023-07-02T03:49:24;17.50;99.90
28244;DHT22;15510;52.512;13.300;2023-07-02T03:51:50;17.50;99.90
28244;DHT22;15510;52.512;13.300;2023-07-02T03:54:16;17.50;99.90
28244;DHT22;15510;52.512;13.300;2023-07-02T03:59:34;17.60;99.90
28244;DHT22;15510;52.512;13.300;2023-07-02T04:02:00;17.70;99.90
28244;DHT22;15510;52.512;13.300;2023-07-02T04:04:26;17.70;99.90
28244;DHT22;15510;52.512;13.300;2023-07-02T04:06:54;17.70;99.90
28244;DHT22;15510;52.512;13.300;2023-07-02T04:09:20;17.60;99.90
28244;DHT22;15510;52.512;13.300;2023-07-02T04:11:46;17.60;99.90
28244;DHT22;15510;52.512;13.300;2023-07-02T04:14:12;17.70;99.90
28244;DHT22;15510;52.512;13.300;2023-07-02T04:16:38;17.70;99.90
28244;DHT22;15510;52.512;13.300;2023-07-02T04:19:03;17.80;99.90
28244;DHT22;15510;52.512;13.300;2023-07-02T04:21:29;17.80;99.90
28244;DHT22;15510;52.512;13.300;2023-07-02T04:23:56;17.70;99.90
28244;DHT22;15510;52.512;13.300;2023-07-02T04:26:21;17.60;99.90
28244;DHT22;15510;52.512;13.300;2023-07-02T04:28:50;17.70;99.90
28244;DHT22;15510;52.512;13.300;2023-07-02T04:31:16;17.70;99.90
28244;DHT22;15510;52.512;13.300;2023-07-02T04:33:41;17.70;99.90
28244;DHT22;15510;52.512;13.300;2023-07-02T04:36:08;17.80;99.90
28244;DHT22;15510;52.512;13.300;2023-07-02T04:38:33;17.90;99.90
28244;DHT22;15510;52.512;13.300;2023-07-02T04:40:59;17.90;99.90
28244;DHT22;15510;52.512;13.300;2023-07-02T04:43:33;17.90;99.90
28244;DHT22;15510;52.512;13.300;2023-07-02T04:45:59;17.90;99.90
28244;DHT22;15510;52.512;13.300;2023-07-02T04:48:25;18.00;99.90
28244;DHT22;15510;52.512;13.300;2023-07-02T04:51:00;18.10;99.90
28244;DHT22;15510;52.512;13.300;2023-07-02T04:53:26;18.00;99.90
28244;DHT22;15510;52.512;13.300;2023-07-02T04:55:52;17.90;99.90
28244;DHT22;15510;52.512;13.300;2023-07-02T04:58:17;18.00;99.90
28244;DHT22;15510;52.512;13.300;2023-07-02T05:00:43;18.00;99.90
28244;DHT22;15510;52.512;13.300;2023-07-02T05:03:09;18.10;99.90
28244;DHT22;15510;52.512;13.300;2023-07-02T05:05:34;18.30;99.90
28244;DHT22;15510;52.512;13.300;2023-07-02T05:08:01;18.40;99.90
28244;DHT22;15510;52.512;13.300;2023-07-02T05:10:30;18.50;99.90
28244;DHT22;15510;52.512;13.300;2023-07-02T05:12:55;18.50;99.90
28244;DHT22;15510;52.512;13.300;2023-07-02T05:15:24;18.50;99.90
28244;DHT22;15510;52.512;13.300;2023-07-02T05:17:56;18.50;99.90
28244;DHT22;15510;52.512;13.300;2023-07-02T05:20:21;18.50;99.90
28244;DHT22;15510;52.512;13.300;2023-07-02T05:22:47;18.50;99.90
28244;DHT22;15510;52.512;13.300;2023-07-02T05:25:15;18.40;99.90
28244;DHT22;15510;52.512;13.300;2023-07-02T05:27:41;18.50;99.90
28244;DHT22;15510;52.512;13.300;2023-07-02T05:30:07;18.50;99.90
28244;DHT22;15510;52.512;13.300;2023-07-02T05:32:34;18.50;99.90
28244;DHT22;15510;52.512;13.300;2023-07-02T05:35:00;18.50;99.90
28244;DHT22;15510;52.512;13.300;2023-07-02T05:37:25;18.50;99.90
28244;DHT22;15510;52.512;13.300;2023-07-02T05:39:51;18.60;99.90
28244;DHT22;15510;52.512;13.300;2023-07-02T05:42:17;18.60;99.90
28244;DHT22;15510;52.512;13.300;2023-07-02T05:44:43;18.50;99.90
28244;DHT22;15510;52.512;13.300;2023-07-02T05:47:09;18.40;99.90
28244;DHT22;15510;52.512;13.300;2023-07-02T05:49:35;18.40;99.90
28244;DHT22;15510;52.512;13.300;2023-07-02T05:52:01;18.40;99.90
28244;DHT22;15510;52.512;13.300;2023-07-02T05:54:26;18.30;99.90
28244;DHT22;15510;52.512;13.300;2023-07-02T05:56:52;18.30;99.90
28244;DHT22;15510;52.512;13.300;2023-07-02T05:59:18;18.40;99.90
28244;DHT22;15510;52.512;13.300;2023-07-02T06:01:45;18.60;99.90
28244;DHT22;15510;52.512;13.300;2023-07-02T06:04:10;18.80;99.90
28244;DHT22;15510;52.512;13.300;2023-07-02T06:06:36;18.90;99.90
28244;DHT22;15510;52.512;13.300;2023-07-02T06:09:11;19.00;99.90
28244;DHT22;15510;52.512;13.300;2023-07-02T06:11:37;19.20;99.90
28244;DHT22;15510;52.512;13.300;2023-07-02T06:14:03;19.30;99.90
28244;DHT22;15510;52.512;13.300;2023-07-02T06:16:29;19.40;99.90
28244;DHT22;15510;52.512;13.300;2023-07-02T06:18:55;19.50;99.90
28244;DHT22;15510;52.512;13.300;2023-07-02T06:21:21;19.50;99.90
28244;DHT22;15510;52.512;13.300;2023-07-02T06:23:47;19.70;99.90
28244;DHT22;15510;52.512;13.300;2023-07-02T06:26:15;19.70;99.90
28244;DHT22;15510;52.512;13.300;2023-07-02T06:28:40;19.80;99.90
28244;DHT22;15510;52.512;13.300;2023-07-02T06:31:06;19.70;99.90
28244;DHT22;15510;52.512;13.300;2023-07-02T06:33:32;19.60;99.90
28244;DHT22;15510;52.512;13.300;2023-07-02T06:36:03;19.60;99.90
28244;DHT22;15510;52.512;13.300;2023-07-02T06:38:28;19.50;99.90
28244;DHT22;15510;52.512;13.300;2023-07-02T06:40:57;19.50;99.90
28244;DHT22;15510;52.512;13.300;2023-07-02T06:43:22;19.40;99.90
28244;DHT22;15510;52.512;13.300;2023-07-02T06:45:48;19.50;99.90
28244;DHT22;15510;52.512;13.300;2023-07-02T06:48:14;19.60;99.90
28244;DHT22;15510;52.512;13.300;2023-07-02T06:50:46;19.70;99.90
28244;DHT22;15510;52.512;13.300;2023-07-02T06:53:15;19.90;99.90
28244;DHT22;15510;52.512;13.300;2023-07-02T06:55:40;20.00;99.90
28244;DHT22;15510;52.512;13.300;2023-07-02T06:58:07;20.10;99.90
28244;DHT22;15510;52.512;13.300;2023-07-02T07:00:33;20.30;99.90
28244;DHT22;15510;52.512;13.300;2023-07-02T07:03:03;20.40;99.90
28244;DHT22;15510;52.512;13.300;2023-07-02T07:05:30;20.50;99.90
28244;DHT22;15510;52.512;13.300;2023-07-02T07:07:59;20.40;99.90
28244;DHT22;15510;52.512;13.300;2023-07-02T07:10:25;20.40;99.90
28244;DHT22;15510;52.512;13.300;2023-07-02T07:12:51;20.50;99.90
28244;DHT22;15510;52.512;13.300;2023-07-02T07:15:17;20.60;99.90
28244;DHT22;15510;52.512;13.300;2023-07-02T07:17:46;20.60;99.90
28244;DHT22;15510;52.512;13.300;2023-07-02T07:20:12;20.60;99.90
28244;DHT22;15510;52.512;13.300;2023-07-02T07:22:38;20.40;99.90
28244;DHT22;15510;52.512;13.300;2023-07-02T07:25:04;20.20;99.90
28244;DHT22;15510;52.512;13.300;2023-07-02T07:27:30;20.10;99.90
28244;DHT22;15510;52.512;13.300;2023-07-02T07:30:11;19.90;99.90
28244;DHT22;15510;52.512;13.300;2023-07-02T07:32:37;20.00;99.90
28244;DHT22;15510;52.512;13.300;2023-07-02T07:35:06;20.20;99.90
28244;DHT22;15510;52.512;13.300;2023-07-02T07:37:32;20.50;99.90
28244;DHT22;15510;52.512;13.300;2023-07-02T07:39:57;20.70;99.90
28244;DHT22;15510;52.512;13.300;2023-07-02T07:42:26;20.90;99.90
28244;DHT22;15510;52.512;13.300;2023-07-02T07:44:52;21.10;99.90
28244;DHT22;15510;52.512;13.300;2023-07-02T07:47:18;21.00;99.90
28244;DHT22;15510;52.512;13.300;2023-07-02T07:49:47;20.80;99.90
28244;DHT22;15510;52.512;13.300;2023-07-02T07:52:12;20.60;99.90
28244;DHT22;15510;52.512;13.300;2023-07-02T07:54:41;20.50;99.90
28244;DHT22;15510;52.512;13.300;2023-07-02T07:57:07;20.30;99.90
28244;DHT22;15510;52.512;13.300;2023-07-02T07:59:35;20.20;99.90
28244;DHT22;15510;52.512;13.300;2023-07-02T08:02:01;20.00;99.90
28244;DHT22;15510;52.512;13.300;2023-07-02T08:04:36;19.80;99.90
28244;DHT22;15510;52.512;13.300;2023-07-02T08:07:12;19.70;99.90
28244;DHT22;15510;52.512;13.300;2023-07-02T08:09:48;19.70;99.90
28244;DHT22;15510;52.512;13.300;2023-07-02T08:12:18;19.70;99.90
28244;DHT22;15510;52.512;13.300;2023-07-02T08:14:46;19.70;99.90
28244;DHT22;15510;52.512;13.300;2023-07-02T08:17:12;19.70;99.90
28244;DHT22;15510;52.512;13.300;2023-07-02T08:19:38;19.70;99.90
28244;DHT22;15510;52.512;13.300;2023-07-02T08:22:04;19.60;99.90
28244;DHT22;15510;52.512;13.300;2023-07-02T08:24:33;19.50;99.90
28244;DHT22;15510;52.512;13.300;2023-07-02T08:26:59;19.50;99.90
28244;DHT22;15510;52.512;13.300;2023-07-02T08:29:30;19.60;99.90
28244;DHT22;15510;52.512;13.300;2023-07-02T08:31:59;19.80;99.90
28244;DHT22;15510;52.512;13.300;2023-07-02T08:34:28;20.00;99.90
28244;DHT22;15510;52.512;13.300;2023-07-02T08:36:54;19.90;99.90
28244;DHT22;15510;52.512;13.300;2023-07-02T08:39:20;19.90;99.90
28244;DHT22;15510;52.512;13.300;2023-07-02T08:41:46;19.90;99.90
28244;DHT22;15510;52.512;13.300;2023-07-02T08:44:13;20.00;99.90
28244;DHT22;15510;52.512;13.300;2023-07-02T08:46:42;20.00;99.90
28244;DHT22;15510;52.512;13.300;2023-07-02T08:49:11;20.00;99.90
28244;DHT22;15510;52.512;13.300;2023-07-02T08:51:37;20.10;99.90
28244;DHT22;15510;52.512;13.300;2023-07-02T08:54:03;20.20;99.90
28244;DHT22;15510;52.512;13.300;2023-07-02T08:56:30;20.30;99.90
28244;DHT22;15510;52.512;13.300;2023-07-02T08:58:58;20.30;99.90
28244;DHT22;15510;52.512;13.300;2023-07-02T09:01:24;20.40;99.90
28244;DHT22;15510;52.512;13.300;2023-07-02T09:03:58;20.50;99.90
28244;DHT22;15510;52.512;13.300;2023-07-02T09:06:26;20.60;99.90
28244;DHT22;15510;52.512;13.300;2023-07-02T09:09:03;20.80;99.90
28244;DHT22;15510;52.512;13.300;2023-07-02T09:11:29;21.00;99.90
28244;DHT22;15510;52.512;13.300;2023-07-02T09:13:55;21.20;99.90
28244;DHT22;15510;52.512;13.300;2023-07-02T09:16:27;21.50;99.90
28244;DHT22;15510;52.512;13.300;2023-07-02T09:19:03;21.60;99.90
28244;DHT22;15510;52.512;13.300;2023-07-02T09:21:44;21.70;99.90
28244;DHT22;15510;52.512;13.300;2023-07-02T09:26:46;21.80;99.90
28244;DHT22;15510;52.512;13.300;2023-07-02T09:29:13;21.60;99.90
28244;DHT22;15510;52.512;13.300;2023-07-02T09:31:46;21.60;99.90
28244;DHT22;15510;52.512;13.300;2023-07-02T09:34:12;21.40;99.90
28244;DHT22;15510;52.512;13.300;2023-07-02T09:36:41;21.40;99.90
28244;DHT22;15510;52.512;13.300;2023-07-02T09:39:25;21.40;99.90
28244;DHT22;15510;52.512;13.300;2023-07-02T09:41:51;21.40;99.90
28244;DHT22;15510;52.512;13.300;2023-07-02T09:44:17;21.40;99.90
28244;DHT22;15510;52.512;13.300;2023-07-02T09:47:06;21.40;99.90
28244;DHT22;15510;52.512;13.300;2023-07-02T09:49:42;21.20;99.90
28244;DHT22;15510;52.512;13.300;2023-07-02T09:52:13;21.10;99.90
28244;DHT22;15510;52.512;13.300;2023-07-02T09:54:42;21.20;99.90
28244;DHT22;15510;52.512;13.300;2023-07-02T09:57:07;21.30;99.90
28244;DHT22;15510;52.512;13.300;2023-07-02T09:59:33;21.40;99.90
28244;DHT22;15510;52.512;13.300;2023-07-02T10:02:00;21.40;99.90
28244;DHT22;15510;52.512;13.300;2023-07-02T10:04:26;21.40;99.90
28244;DHT22;15510;52.512;13.300;2023-07-02T10:06:53;21.30;99.90
28244;DHT22;15510;52.512;13.300;2023-07-02T10:09:38;21.30;99.90
28244;DHT22;15510;52.512;13.300;2023-07-02T10:12:28;21.30;99.90
28244;DHT22;15510;52.512;13.300;2023-07-02T10:14:56;21.30;99.90
28244;DHT22;15510;52.512;13.300;2023-07-02T10:17:32;21.60;99.90
28244;DHT22;15510;52.512;13.300;2023-07-02T10:20:00;21.60;99.90
28244;DHT22;15510;52.512;13.300;2023-07-02T10:22:52;21.60;99.90
28244;DHT22;15510;52.512;13.300;2023-07-02T10:25:35;21.90;99.90
28244;DHT22;15510;52.512;13.300;2023-07-02T10:28:20;22.10;99.90
28244;DHT22;15510;52.512;13.300;2023-07-02T10:30:51;22.30;99.90
28244;DHT22;15510;52.512;13.300;2023-07-02T10:33:22;22.20;99.90
28244;DHT22;15510;52.512;13.300;2023-07-02T10:35:49;22.10;99.90
28244;DHT22;15510;52.512;13.300;2023-07-02T10:38:21;22.10;99.90
28244;DHT22;15510;52.512;13.300;2023-07-02T10:40:57;22.10;99.90
28244;DHT22;15510;52.512;13.300;2023-07-02T10:43:27;22.10;99.90
28244;DHT22;15510;52.512;13.300;2023-07-02T10:46:01;22.20;99.90
28244;DHT22;15510;52.512;13.300;2023-07-02T10:48:29;22.30;99.90
28244;DHT22;15510;52.512;13.300;2023-07-02T10:50:57;22.30;99.90
28244;DHT22;15510;52.512;13.300;2023-07-02T10:56:35;22.60;99.90
28244;DHT22;15510;52.512;13.300;2023-07-02T10:59:03;22.80;99.90
28244;DHT22;15510;52.512;13.300;2023-07-02T11:01:44;23.20;99.90
28244;DHT22;15510;52.512;13.300;2023-07-02T11:04:10;23.40;99.90
28244;DHT22;15510;52.512;13.300;2023-07-02T11:06:36;23.30;99.90
28244;DHT22;15510;52.512;13.300;2023-07-02T11:09:16;23.10;99.90
28244;DHT22;15510;52.512;13.300;2023-07-02T11:12:00;23.00;99.90
28244;DHT22;15510;52.512;13.300;2023-07-02T11:14:34;23.20;99.90
28244;DHT22;15510;52.512;13.300;2023-07-02T11:17:05;23.90;99.90
28244;DHT22;15510;52.512;13.300;2023-07-02T11:19:49;24.10;99.90
28244;DHT22;15510;52.512;13.300;2023-07-02T11:22:15;23.90;99.90
28244;DHT22;15510;52.512;13.300;2023-07-02T11:24:44;24.50;99.90
28244;DHT22;15510;52.512;13.300;2023-07-02T11:27:20;25.50;99.90
28244;DHT22;15510;52.512;13.300;2023-07-02T11:29:58;26.20;98.80
28244;DHT22;15510;52.512;13.300;2023-07-02T11:32:48;26.20;97.60
28244;DHT22;15510;52.512;13.300;2023-07-02T11:35:15;26.20;94.10
28244;DHT22;15510;52.512;13.300;2023-07-02T11:37:44;26.10;93.30
28244;DHT22;15510;52.512;13.300;2023-07-02T11:40:14;25.50;92.30
28244;DHT22;15510;52.512;13.300;2023-07-02T11:43:00;25.40;92.00
28244;DHT22;15510;52.512;13.300;2023-07-02T11:45:26;26.10;91.50
28244;DHT22;15510;52.512;13.300;2023-07-02T11:47:54;26.90;83.30
28244;DHT22;15510;52.512;13.300;2023-07-02T11:50:20;27.50;78.00
28244;DHT22;15510;52.512;13.300;2023-07-02T11:52:46;27.80;71.20
28244;DHT22;15510;52.512;13.300;2023-07-02T11:55:14;27.10;70.20
28244;DHT22;15510;52.512;13.300;2023-07-02T11:57:40;26.30;72.00
28244;DHT22;15510;52.512;13.300;2023-07-02T12:02:58;26.30;75.30
28244;DHT22;15510;52.512;13.300;2023-07-02T12:05:27;27.20;74.70
28244;DHT22;15510;52.512;13.300;2023-07-02T12:07:54;28.10;70.70
28244;DHT22;15510;52.512;13.300;2023-07-02T12:10:22;29.00;68.50
28244;DHT22;15510;52.512;13.300;2023-07-02T12:13:13;29.20;62.70
28244;DHT22;15510;52.512;13.300;2023-07-02T12:15:47;28.80;62.60
28244;DHT22;15510;52.512;13.300;2023-07-02T12:18:15;28.30;63.30
28244;DHT22;15510;52.512;13.300;2023-07-02T12:20:41;28.70;62.60
28244;DHT22;15510;52.512;13.300;2023-07-02T12:23:12;29.30;59.70
28244;DHT22;15510;52.512;13.300;2023-07-02T12:25:41;29.00;59.60
28244;DHT22;15510;52.512;13.300;2023-07-02T12:28:07;29.10;58.00
28244;DHT22;15510;52.512;13.300;2023-07-02T12:30:33;29.10;58.40
28244;DHT22;15510;52.512;13.300;2023-07-02T12:32:58;29.60;57.10
28244;DHT22;15510;52.512;13.300;2023-07-02T12:35:27;29.90;57.30
28244;DHT22;15510;52.512;13.300;2023-07-02T12:38:01;30.20;55.20
28244;DHT22;15510;52.512;13.300;2023-07-02T12:40:32;30.90;54.10
28244;DHT22;15510;52.512;13.300;2023-07-02T12:42:58;31.70;52.90
28244;DHT22;15510;52.512;13.300;2023-07-02T12:45:24;32.00;51.40
28244;DHT22;15510;52.512;13.300;2023-07-02T12:47:50;31.80;49.80
28244;DHT22;15510;52.512;13.300;2023-07-02T12:50:16;32.20;48.90
28244;DHT22;15510;52.512;13.300;2023-07-02T12:52:52;32.50;48.40
28244;DHT22;15510;52.512;13.300;2023-07-02T12:55:18;32.70;48.00
28244;DHT22;15510;52.512;13.300;2023-07-02T12:57:44;31.10;49.00
28244;DHT22;15510;52.512;13.300;2023-07-02T13:00:12;29.80;50.40
28244;DHT22;15510;52.512;13.300;2023-07-02T13:02:38;29.80;51.50
28244;DHT22;15510;52.512;13.300;2023-07-02T13:05:07;30.50;51.40
28244;DHT22;15510;52.512;13.300;2023-07-02T13:07:33;31.00;48.20
28244;DHT22;15510;52.512;13.300;2023-07-02T13:09:59;31.90;47.40
28244;DHT22;15510;52.512;13.300;2023-07-02T13:12:25;32.00;47.00
28244;DHT22;15510;52.512;13.300;2023-07-02T13:14:51;32.30;47.50
28244;DHT22;15510;52.512;13.300;2023-07-02T13:17:16;32.40;47.40
28244;DHT22;15510;52.512;13.300;2023-07-02T13:19:42;32.50;46.60
28244;DHT22;15510;52.512;13.300;2023-07-02T13:22:08;33.20;46.00
28244;DHT22;15510;52.512;13.300;2023-07-02T13:24:36;33.30;45.00
28244;DHT22;15510;52.512;13.300;2023-07-02T13:27:13;32.30;45.50
28244;DHT22;15510;52.512;13.300;2023-07-02T13:29:49;31.10;47.00
28244;DHT22;15510;52.512;13.300;2023-07-02T13:32:18;31.20;47.00
28244;DHT22;15510;52.512;13.300;2023-07-02T13:34:49;30.30;47.50
28244;DHT22;15510;52.512;13.300;2023-07-02T13:37:15;29.00;48.80
28244;DHT22;15510;52.512;13.300;2023-07-02T13:39:48;28.60;50.20
28244;DHT22;15510;52.512;13.300;2023-07-02T13:42:17;29.70;49.30
28244;DHT22;15510;52.512;13.300;2023-07-02T13:44:43;31.10;47.80
28244;DHT22;15510;52.512;13.300;2023-07-02T13:47:09;32.20;46.80
28244;DHT22;15510;52.512;13.300;2023-07-02T13:49:37;33.70;44.30
28244;DHT22;15510;52.512;13.300;2023-07-02T13:52:06;34.90;42.40
28244;DHT22;15510;52.512;13.300;2023-07-02T13:54:34;35.00;41.40
28244;DHT22;15510;52.512;13.300;2023-07-02T13:57:00;35.30;40.80
28244;DHT22;15510;52.512;13.300;2023-07-02T13:59:26;35.30;39.60
28244;DHT22;15510;52.512;13.300;2023-07-02T14:02:01;34.60;40.00
28244;DHT22;15510;52.512;13.300;2023-07-02T14:04:27;34.10;40.90
28244;DHT22;15510;52.512;13.300;2023-07-02T14:06:53;33.70;40.30
28244;DHT22;15510;52.512;13.300;2023-07-02T14:09:22;32.30;41.80
28244;DHT22;15510;52.512;13.300;2023-07-02T14:11:59;31.30;42.40
28244;DHT22;15510;52.512;13.300;2023-07-02T14:14:28;30.20;43.50
28244;DHT22;15510;52.512;13.300;2023-07-02T14:16:57;28.90;45.00
28244;DHT22;15510;52.512;13.300;2023-07-02T14:19:22;28.00;46.60
28244;DHT22;15510;52.512;13.300;2023-07-02T14:21:48;28.70;47.00
28244;DHT22;15510;52.512;13.300;2023-07-02T14:24:14;30.10;46.00
28244;DHT22;15510;52.512;13.300;2023-07-02T14:26:40;31.60;44.70
28244;DHT22;15510;52.512;13.300;2023-07-02T14:29:06;33.10;42.10
28244;DHT22;15510;52.512;13.300;2023-07-02T14:31:32;33.90;39.70
28244;DHT22;15510;52.512;13.300;2023-07-02T14:33:57;34.10;39.00
28244;DHT22;15510;52.512;13.300;2023-07-02T14:36:33;33.30;39.20
28244;DHT22;15510;52.512;13.300;2023-07-02T14:38:59;31.50;40.40
28244;DHT22;15510;52.512;13.300;2023-07-02T14:41:25;30.40;42.10
28244;DHT22;15510;52.512;13.300;2023-07-02T14:43:59;28.90;44.00
28244;DHT22;15510;52.512;13.300;2023-07-02T14:46:24;28.90;44.70
28244;DHT22;15510;52.512;13.300;2023-07-02T14:48:55;28.80;44.60
28244;DHT22;15510;52.512;13.300;2023-07-02T14:51:21;29.60;44.10
28244;DHT22;15510;52.512;13.300;2023-07-02T14:53:50;29.60;43.60
28244;DHT22;15510;52.512;13.300;2023-07-02T14:56:16;28.90;45.00
28244;DHT22;15510;52.512;13.300;2023-07-02T14:58:42;28.50;45.20
28244;DHT22;15510;52.512;13.300;2023-07-02T15:01:08;28.20;45.60
28244;DHT22;15510;52.512;13.300;2023-07-02T15:03:33;27.70;46.10
28244;DHT22;15510;52.512;13.300;2023-07-02T15:06:25;27.10;47.30
28244;DHT22;15510;52.512;13.300;2023-07-02T15:08:54;26.20;47.80
28244;DHT22;15510;52.512;13.300;2023-07-02T15:11:28;25.50;48.90
28244;DHT22;15510;52.512;13.300;2023-07-02T15:13:53;25.00;50.40
28244;DHT22;15510;52.512;13.300;2023-07-02T15:16:19;24.70;50.70
28244;DHT22;15510;52.512;13.300;2023-07-02T15:18:50;24.60;51.70
28244;DHT22;15510;52.512;13.300;2023-07-02T15:21:16;24.70;51.90
28244;DHT22;15510;52.512;13.300;2023-07-02T15:23:47;24.70;53.10
28244;DHT22;15510;52.512;13.300;2023-07-02T15:26:13;24.70;52.90
28244;DHT22;15510;52.512;13.300;2023-07-02T15:28:40;24.70;53.10
28244;DHT22;15510;52.512;13.300;2023-07-02T15:31:09;24.80;53.90
28244;DHT22;15510;52.512;13.300;2023-07-02T15:33:38;24.60;53.60
28244;DHT22;15510;52.512;13.300;2023-07-02T15:36:06;24.30;53.80